Air Resources Laboratory banner image
Air Resources Laboratory web site National Oceanic and Atmospheric Administration (NOAA)

il metar


KORD 210951Z 28007KT 10SM FEW045 M01/M06 A3035 RMK AO2 SLP284 T10111061=